sensor_id;sensor_type;location;lat;lon;timestamp;P1;durP1;ratioP1;P2;durP2;ratioP2
23346;SDS011;36852;45.466;11.066;2023-06-05T00:00:41;9.10;;;4.50;;
23346;SDS011;36852;45.466;11.066;2023-06-05T00:03:09;7.10;;;5.03;;
23346;SDS011;36852;45.466;11.066;2023-06-05T00:05:37;5.72;;;4.87;;
23346;SDS011;36852;45.466;11.066;2023-06-05T00:08:06;5.75;;;4.65;;
23346;SDS011;36852;45.466;11.066;2023-06-05T00:10:35;6.58;;;5.53;;
23346;SDS011;36852;45.466;11.066;2023-06-05T00:13:03;6.95;;;4.87;;
23346;SDS011;36852;45.466;11.066;2023-06-05T00:15:30;6.28;;;4.60;;
23346;SDS011;36852;45.466;11.066;2023-06-05T00:18:01;8.08;;;5.08;;
23346;SDS011;36852;45.466;11.066;2023-06-05T00:20:31;5.40;;;4.87;;
23346;SDS011;36852;45.466;11.066;2023-06-05T00:22:59;9.00;;;5.00;;
23346;SDS011;36852;45.466;11.066;2023-06-05T00:25:27;5.12;;;4.45;;
23346;SDS011;36852;45.466;11.066;2023-06-05T00:27:55;6.17;;;5.28;;
23346;SDS011;36852;45.466;11.066;2023-06-05T00:30:22;6.03;;;5.37;;
23346;SDS011;36852;45.466;11.066;2023-06-05T00:32:50;7.62;;;5.37;;
23346;SDS011;36852;45.466;11.066;2023-06-05T00:35:21;5.95;;;4.80;;
23346;SDS011;36852;45.466;11.066;2023-06-05T00:37:49;6.22;;;5.62;;
23346;SDS011;36852;45.466;11.066;2023-06-05T00:40:18;5.90;;;4.80;;
23346;SDS011;36852;45.466;11.066;2023-06-05T00:42:50;6.97;;;5.60;;
23346;SDS011;36852;45.466;11.066;2023-06-05T00:45:18;8.90;;;5.40;;
23346;SDS011;36852;45.466;11.066;2023-06-05T00:47:46;7.45;;;6.17;;
23346;SDS011;36852;45.466;11.066;2023-06-05T00:50:14;6.60;;;5.90;;
23346;SDS011;36852;45.466;11.066;2023-06-05T00:52:44;11.15;;;6.30;;
23346;SDS011;36852;45.466;11.066;2023-06-05T00:55:14;6.70;;;6.10;;
23346;SDS011;36852;45.466;11.066;2023-06-05T00:57:42;9.38;;;5.67;;
23346;SDS011;36852;45.466;11.066;2023-06-05T01:00:14;6.80;;;6.10;;
23346;SDS011;36852;45.466;11.066;2023-06-05T01:02:42;7.67;;;5.40;;
23346;SDS011;36852;45.466;11.066;2023-06-05T01:07:57;9.25;;;6.05;;
23346;SDS011;36852;45.466;11.066;2023-06-05T01:10:28;9.03;;;6.40;;
23346;SDS011;36852;45.466;11.066;2023-06-05T01:15:34;6.75;;;5.47;;
23346;SDS011;36852;45.466;11.066;2023-06-05T01:18:05;9.23;;;6.03;;
23346;SDS011;36852;45.466;11.066;2023-06-05T01:20:34;8.28;;;5.70;;
23346;SDS011;36852;45.466;11.066;2023-06-05T01:23:07;7.50;;;5.35;;
23346;SDS011;36852;45.466;11.066;2023-06-05T01:25:35;5.75;;;4.87;;
23346;SDS011;36852;45.466;11.066;2023-06-05T01:36:01;12.05;;;5.90;;
23346;SDS011;36852;45.466;11.066;2023-06-05T01:38:33;5.35;;;4.50;;
23346;SDS011;36852;45.466;11.066;2023-06-05T01:41:03;5.10;;;4.60;;
23346;SDS011;36852;45.466;11.066;2023-06-05T01:43:32;5.17;;;4.37;;
23346;SDS011;36852;45.466;11.066;2023-06-05T01:46:04;4.35;;;3.87;;
23346;SDS011;36852;45.466;11.066;2023-06-05T01:48:35;5.53;;;3.62;;
23346;SDS011;36852;45.466;11.066;2023-06-05T01:51:06;4.12;;;3.40;;
23346;SDS011;36852;45.466;11.066;2023-06-05T01:53:34;6.45;;;3.95;;
23346;SDS011;36852;45.466;11.066;2023-06-05T01:56:02;6.78;;;4.30;;
23346;SDS011;36852;45.466;11.066;2023-06-05T01:58:33;5.22;;;3.30;;
23346;SDS011;36852;45.466;11.066;2023-06-05T02:01:02;4.95;;;3.75;;
23346;SDS011;36852;45.466;11.066;2023-06-05T02:03:30;6.72;;;3.83;;
23346;SDS011;36852;45.466;11.066;2023-06-05T02:05:58;4.35;;;3.95;;
23346;SDS011;36852;45.466;11.066;2023-06-05T02:08:27;4.45;;;3.92;;
23346;SDS011;36852;45.466;11.066;2023-06-05T02:10:55;5.87;;;3.80;;
23346;SDS011;36852;45.466;11.066;2023-06-05T02:13:22;4.75;;;4.10;;
23346;SDS011;36852;45.466;11.066;2023-06-05T02:15:52;4.55;;;3.67;;
23346;SDS011;36852;45.466;11.066;2023-06-05T02:18:24;7.55;;;4.37;;
23346;SDS011;36852;45.466;11.066;2023-06-05T02:20:53;5.50;;;4.62;;
23346;SDS011;36852;45.466;11.066;2023-06-05T02:23:23;8.05;;;4.72;;
23346;SDS011;36852;45.466;11.066;2023-06-05T02:25:52;7.33;;;4.37;;
23346;SDS011;36852;45.466;11.066;2023-06-05T02:28:21;5.75;;;4.53;;
23346;SDS011;36852;45.466;11.066;2023-06-05T02:30:49;7.00;;;4.08;;
23346;SDS011;36852;45.466;11.066;2023-06-05T02:33:17;5.33;;;4.53;;
23346;SDS011;36852;45.466;11.066;2023-06-05T02:35:44;6.47;;;3.72;;
23346;SDS011;36852;45.466;11.066;2023-06-05T02:38:12;4.72;;;4.12;;
23346;SDS011;36852;45.466;11.066;2023-06-05T02:40:40;6.95;;;4.15;;
23346;SDS011;36852;45.466;11.066;2023-06-05T02:43:09;4.58;;;4.12;;
23346;SDS011;36852;45.466;11.066;2023-06-05T02:45:38;3.40;;;3.10;;
23346;SDS011;36852;45.466;11.066;2023-06-05T02:48:07;4.25;;;3.20;;
23346;SDS011;36852;45.466;11.066;2023-06-05T02:50:35;3.47;;;3.15;;
23346;SDS011;36852;45.466;11.066;2023-06-05T02:53:05;5.78;;;3.42;;
23346;SDS011;36852;45.466;11.066;2023-06-05T02:55:33;3.60;;;3.30;;
23346;SDS011;36852;45.466;11.066;2023-06-05T02:58:04;5.33;;;3.35;;
23346;SDS011;36852;45.466;11.066;2023-06-05T03:00:37;4.70;;;2.85;;
23346;SDS011;36852;45.466;11.066;2023-06-05T03:03:06;3.65;;;3.08;;
23346;SDS011;36852;45.466;11.066;2023-06-05T03:05:34;5.05;;;2.98;;
23346;SDS011;36852;45.466;11.066;2023-06-05T03:08:04;3.00;;;2.55;;
23346;SDS011;36852;45.466;11.066;2023-06-05T03:10:34;5.58;;;2.70;;
23346;SDS011;36852;45.466;11.066;2023-06-05T03:13:02;5.97;;;2.92;;
23346;SDS011;36852;45.466;11.066;2023-06-05T03:15:31;3.70;;;2.60;;
23346;SDS011;36852;45.466;11.066;2023-06-05T03:17:59;3.47;;;2.60;;
23346;SDS011;36852;45.466;11.066;2023-06-05T03:20:28;3.75;;;2.80;;
23346;SDS011;36852;45.466;11.066;2023-06-05T03:22:56;2.62;;;2.42;;
23346;SDS011;36852;45.466;11.066;2023-06-05T03:25:24;3.35;;;2.35;;
23346;SDS011;36852;45.466;11.066;2023-06-05T03:27:54;2.95;;;2.45;;
23346;SDS011;36852;45.466;11.066;2023-06-05T03:30:23;2.65;;;2.42;;
23346;SDS011;36852;45.466;11.066;2023-06-05T03:32:53;4.50;;;2.02;;
23346;SDS011;36852;45.466;11.066;2023-06-05T03:35:21;4.15;;;2.40;;
23346;SDS011;36852;45.466;11.066;2023-06-05T03:37:49;4.00;;;2.27;;
23346;SDS011;36852;45.466;11.066;2023-06-05T03:40:17;3.27;;;2.55;;
23346;SDS011;36852;45.466;11.066;2023-06-05T03:42:45;2.87;;;2.58;;
23346;SDS011;36852;45.466;11.066;2023-06-05T03:45:14;2.52;;;2.30;;
23346;SDS011;36852;45.466;11.066;2023-06-05T03:47:43;2.22;;;2.02;;
23346;SDS011;36852;45.466;11.066;2023-06-05T03:50:12;2.87;;;2.30;;
23346;SDS011;36852;45.466;11.066;2023-06-05T03:52:41;3.95;;;1.95;;
23346;SDS011;36852;45.466;11.066;2023-06-05T03:55:09;2.00;;;1.80;;
23346;SDS011;36852;45.466;11.066;2023-06-05T03:57:37;2.83;;;2.15;;
23346;SDS011;36852;45.466;11.066;2023-06-05T04:00:06;2.77;;;2.25;;
23346;SDS011;36852;45.466;11.066;2023-06-05T04:02:41;2.15;;;1.95;;
23346;SDS011;36852;45.466;11.066;2023-06-05T04:05:12;2.33;;;2.10;;
23346;SDS011;36852;45.466;11.066;2023-06-05T04:07:40;2.47;;;1.95;;
23346;SDS011;36852;45.466;11.066;2023-06-05T04:10:09;3.52;;;2.22;;
23346;SDS011;36852;45.466;11.066;2023-06-05T04:12:37;3.05;;;2.10;;
23346;SDS011;36852;45.466;11.066;2023-06-05T04:15:05;2.98;;;2.05;;
23346;SDS011;36852;45.466;11.066;2023-06-05T04:17:34;3.35;;;2.08;;
23346;SDS011;36852;45.466;11.066;2023-06-05T04:20:02;2.70;;;2.37;;
23346;SDS011;36852;45.466;11.066;2023-06-05T04:22:31;2.85;;;1.70;;
23346;SDS011;36852;45.466;11.066;2023-06-05T04:24:59;1.87;;;1.77;;
23346;SDS011;36852;45.466;11.066;2023-06-05T04:27:33;3.60;;;2.00;;
23346;SDS011;36852;45.466;11.066;2023-06-05T04:30:00;2.87;;;1.98;;
23346;SDS011;36852;45.466;11.066;2023-06-05T04:32:28;2.02;;;1.82;;
23346;SDS011;36852;45.466;11.066;2023-06-05T04:34:57;3.87;;;1.85;;
23346;SDS011;36852;45.466;11.066;2023-06-05T04:37:26;2.25;;;1.82;;
23346;SDS011;36852;45.466;11.066;2023-06-05T04:39:55;4.67;;;1.95;;
23346;SDS011;36852;45.466;11.066;2023-06-05T04:42:22;2.20;;;2.00;;
23346;SDS011;36852;45.466;11.066;2023-06-05T04:45:01;3.85;;;1.92;;
23346;SDS011;36852;45.466;11.066;2023-06-05T04:47:31;4.40;;;1.70;;
23346;SDS011;36852;45.466;11.066;2023-06-05T04:50:00;8.08;;;1.92;;
23346;SDS011;36852;45.466;11.066;2023-06-05T04:52:36;2.77;;;2.47;;
23346;SDS011;36852;45.466;11.066;2023-06-05T04:55:07;5.75;;;2.00;;
23346;SDS011;36852;45.466;11.066;2023-06-05T04:57:35;3.42;;;2.30;;
23346;SDS011;36852;45.466;11.066;2023-06-05T05:00:08;5.17;;;2.52;;
23346;SDS011;36852;45.466;11.066;2023-06-05T05:02:37;2.42;;;2.22;;
23346;SDS011;36852;45.466;11.066;2023-06-05T05:05:05;3.27;;;2.45;;
23346;SDS011;36852;45.466;11.066;2023-06-05T05:07:35;3.35;;;2.30;;
23346;SDS011;36852;45.466;11.066;2023-06-05T05:10:03;2.40;;;2.17;;
23346;SDS011;36852;45.466;11.066;2023-06-05T05:12:32;3.72;;;2.12;;
23346;SDS011;36852;45.466;11.066;2023-06-05T05:15:01;2.25;;;1.82;;
23346;SDS011;36852;45.466;11.066;2023-06-05T05:17:32;3.77;;;2.70;;
23346;SDS011;36852;45.466;11.066;2023-06-05T05:20:00;4.87;;;2.65;;
23346;SDS011;36852;45.466;11.066;2023-06-05T05:22:31;3.00;;;2.65;;
23346;SDS011;36852;45.466;11.066;2023-06-05T05:24:59;3.98;;;2.98;;
23346;SDS011;36852;45.466;11.066;2023-06-05T05:27:28;4.58;;;2.50;;
23346;SDS011;36852;45.466;11.066;2023-06-05T05:29:56;3.25;;;2.67;;
23346;SDS011;36852;45.466;11.066;2023-06-05T05:32:23;2.98;;;2.67;;
23346;SDS011;36852;45.466;11.066;2023-06-05T05:34:53;3.35;;;2.90;;
23346;SDS011;36852;45.466;11.066;2023-06-05T05:37:21;3.05;;;2.62;;
23346;SDS011;36852;45.466;11.066;2023-06-05T05:39:49;4.80;;;3.27;;
23346;SDS011;36852;45.466;11.066;2023-06-05T05:42:18;7.35;;;2.90;;
23346;SDS011;36852;45.466;11.066;2023-06-05T05:44:45;4.55;;;3.08;;
23346;SDS011;36852;45.466;11.066;2023-06-05T05:47:13;3.50;;;2.52;;
23346;SDS011;36852;45.466;11.066;2023-06-05T05:49:43;6.10;;;2.80;;
23346;SDS011;36852;45.466;11.066;2023-06-05T05:52:11;3.67;;;2.67;;
23346;SDS011;36852;45.466;11.066;2023-06-05T05:54:39;3.37;;;2.20;;
23346;SDS011;36852;45.466;11.066;2023-06-05T05:57:07;3.35;;;2.30;;
23346;SDS011;36852;45.466;11.066;2023-06-05T05:59:34;4.37;;;2.50;;
23346;SDS011;36852;45.466;11.066;2023-06-05T06:02:02;2.55;;;2.30;;
23346;SDS011;36852;45.466;11.066;2023-06-05T06:04:32;4.55;;;2.33;;
23346;SDS011;36852;45.466;11.066;2023-06-05T06:07:00;3.90;;;2.50;;
23346;SDS011;36852;45.466;11.066;2023-06-05T06:09:29;3.35;;;2.30;;
23346;SDS011;36852;45.466;11.066;2023-06-05T06:12:00;4.80;;;2.50;;
23346;SDS011;36852;45.466;11.066;2023-06-05T06:14:30;4.35;;;2.80;;
23346;SDS011;36852;45.466;11.066;2023-06-05T06:16:57;3.27;;;2.30;;
23346;SDS011;36852;45.466;11.066;2023-06-05T06:19:27;4.97;;;2.40;;
23346;SDS011;36852;45.466;11.066;2023-06-05T06:21:57;6.53;;;2.65;;
23346;SDS011;36852;45.466;11.066;2023-06-05T06:24:25;4.75;;;2.20;;
23346;SDS011;36852;45.466;11.066;2023-06-05T06:26:53;2.42;;;2.22;;
23346;SDS011;36852;45.466;11.066;2023-06-05T06:29:24;7.53;;;2.45;;
23346;SDS011;36852;45.466;11.066;2023-06-05T06:31:52;3.45;;;2.60;;
23346;SDS011;36852;45.466;11.066;2023-06-05T06:34:20;7.17;;;2.60;;
23346;SDS011;36852;45.466;11.066;2023-06-05T06:36:47;4.22;;;2.50;;
23346;SDS011;36852;45.466;11.066;2023-06-05T06:39:15;4.47;;;2.17;;
23346;SDS011;36852;45.466;11.066;2023-06-05T06:41:43;4.17;;;2.05;;
23346;SDS011;36852;45.466;11.066;2023-06-05T06:44:12;3.47;;;2.10;;
23346;SDS011;36852;45.466;11.066;2023-06-05T06:46:40;3.22;;;2.72;;
23346;SDS011;36852;45.466;11.066;2023-06-05T06:49:08;4.37;;;2.25;;
23346;SDS011;36852;45.466;11.066;2023-06-05T06:51:37;3.40;;;2.00;;
23346;SDS011;36852;45.466;11.066;2023-06-05T06:54:04;3.17;;;1.77;;
23346;SDS011;36852;45.466;11.066;2023-06-05T06:56:33;4.50;;;2.30;;
23346;SDS011;36852;45.466;11.066;2023-06-05T06:59:05;3.60;;;2.50;;
23346;SDS011;36852;45.466;11.066;2023-06-05T07:01:33;3.15;;;2.08;;
23346;SDS011;36852;45.466;11.066;2023-06-05T07:04:02;4.15;;;2.20;;
23346;SDS011;36852;45.466;11.066;2023-06-05T07:06:32;2.37;;;2.00;;
23346;SDS011;36852;45.466;11.066;2023-06-05T07:09:00;5.20;;;2.30;;
23346;SDS011;36852;45.466;11.066;2023-06-05T07:11:31;3.85;;;2.55;;
23346;SDS011;36852;45.466;11.066;2023-06-05T07:13:58;6.78;;;2.58;;
23346;SDS011;36852;45.466;11.066;2023-06-05T07:16:26;6.22;;;3.12;;
23346;SDS011;36852;45.466;11.066;2023-06-05T07:18:54;3.92;;;2.92;;
23346;SDS011;36852;45.466;11.066;2023-06-05T07:21:25;2.60;;;2.10;;
23346;SDS011;36852;45.466;11.066;2023-06-05T07:23:54;3.10;;;2.27;;
23346;SDS011;36852;45.466;11.066;2023-06-05T07:29:08;3.87;;;2.40;;
23346;SDS011;36852;45.466;11.066;2023-06-05T07:31:39;3.95;;;2.40;;
23346;SDS011;36852;45.466;11.066;2023-06-05T07:34:07;4.78;;;2.52;;
23346;SDS011;36852;45.466;11.066;2023-06-05T07:36:35;5.75;;;2.80;;
23346;SDS011;36852;45.466;11.066;2023-06-05T07:39:03;3.58;;;1.85;;
23346;SDS011;36852;45.466;11.066;2023-06-05T07:41:31;4.08;;;2.47;;
23346;SDS011;36852;45.466;11.066;2023-06-05T07:44:00;3.33;;;2.85;;
23346;SDS011;36852;45.466;11.066;2023-06-05T07:46:28;3.55;;;2.50;;
23346;SDS011;36852;45.466;11.066;2023-06-05T07:48:56;4.90;;;2.60;;
23346;SDS011;36852;45.466;11.066;2023-06-05T07:51:24;4.67;;;2.80;;
23346;SDS011;36852;45.466;11.066;2023-06-05T07:53:52;7.87;;;3.50;;
23346;SDS011;36852;45.466;11.066;2023-06-05T07:56:21;4.37;;;2.95;;
23346;SDS011;36852;45.466;11.066;2023-06-05T07:58:50;7.20;;;2.80;;
23346;SDS011;36852;45.466;11.066;2023-06-05T08:01:18;3.92;;;2.75;;
23346;SDS011;36852;45.466;11.066;2023-06-05T08:03:57;3.65;;;2.83;;
23346;SDS011;36852;45.466;11.066;2023-06-05T08:06:25;3.58;;;2.40;;
23346;SDS011;36852;45.466;11.066;2023-06-05T08:08:54;3.80;;;2.58;;
23346;SDS011;36852;45.466;11.066;2023-06-05T08:11:22;3.00;;;2.52;;
23346;SDS011;36852;45.466;11.066;2023-06-05T08:13:50;4.78;;;2.95;;
23346;SDS011;36852;45.466;11.066;2023-06-05T08:16:18;6.75;;;3.60;;
23346;SDS011;36852;45.466;11.066;2023-06-05T08:18:46;5.08;;;3.12;;
23346;SDS011;36852;45.466;11.066;2023-06-05T08:21:15;4.70;;;3.37;;
23346;SDS011;36852;45.466;11.066;2023-06-05T08:23:44;6.45;;;3.52;;
23346;SDS011;36852;45.466;11.066;2023-06-05T08:26:12;5.05;;;3.10;;
23346;SDS011;36852;45.466;11.066;2023-06-05T08:28:40;4.72;;;3.12;;
23346;SDS011;36852;45.466;11.066;2023-06-05T08:31:09;4.90;;;3.20;;
23346;SDS011;36852;45.466;11.066;2023-06-05T08:33:38;7.08;;;3.37;;
23346;SDS011;36852;45.466;11.066;2023-06-05T08:36:08;6.58;;;3.75;;
23346;SDS011;36852;45.466;11.066;2023-06-05T08:38:37;4.50;;;2.98;;
23346;SDS011;36852;45.466;11.066;2023-06-05T08:41:08;5.40;;;3.12;;
23346;SDS011;36852;45.466;11.066;2023-06-05T08:43:38;6.78;;;4.00;;
23346;SDS011;36852;45.466;11.066;2023-06-05T08:46:09;6.22;;;3.60;;
23346;SDS011;36852;45.466;11.066;2023-06-05T08:48:45;7.10;;;3.27;;
23346;SDS011;36852;45.466;11.066;2023-06-05T08:51:15;4.62;;;3.22;;
23346;SDS011;36852;45.466;11.066;2023-06-05T08:53:53;4.12;;;3.30;;
23346;SDS011;36852;45.466;11.066;2023-06-05T08:56:23;4.80;;;3.77;;
23346;SDS011;36852;45.466;11.066;2023-06-05T08:58:51;6.83;;;3.65;;
23346;SDS011;36852;45.466;11.066;2023-06-05T09:01:22;10.53;;;4.30;;
23346;SDS011;36852;45.466;11.066;2023-06-05T09:03:50;5.72;;;3.80;;
23346;SDS011;36852;45.466;11.066;2023-06-05T09:06:17;5.12;;;3.35;;
23346;SDS011;36852;45.466;11.066;2023-06-05T09:08:48;5.00;;;3.00;;
23346;SDS011;36852;45.466;11.066;2023-06-05T09:11:20;4.60;;;3.50;;
23346;SDS011;36852;45.466;11.066;2023-06-05T09:13:57;4.17;;;2.85;;
23346;SDS011;36852;45.466;11.066;2023-06-05T09:16:36;4.35;;;3.67;;
23346;SDS011;36852;45.466;11.066;2023-06-05T09:19:05;6.15;;;3.60;;
23346;SDS011;36852;45.466;11.066;2023-06-05T09:21:34;3.65;;;2.75;;
23346;SDS011;36852;45.466;11.066;2023-06-05T09:26:57;3.98;;;2.52;;
23346;SDS011;36852;45.466;11.066;2023-06-05T09:29:27;2.33;;;2.12;;
23346;SDS011;36852;45.466;11.066;2023-06-05T09:32:00;4.15;;;2.12;;
23346;SDS011;36852;45.466;11.066;2023-06-05T09:34:37;4.65;;;1.80;;
23346;SDS011;36852;45.466;11.066;2023-06-05T09:37:11;2.35;;;2.05;;
23346;SDS011;36852;45.466;11.066;2023-06-05T09:39:38;2.98;;;2.00;;
23346;SDS011;36852;45.466;11.066;2023-06-05T09:42:08;4.33;;;1.92;;
23346;SDS011;36852;45.466;11.066;2023-06-05T09:44:35;2.83;;;1.87;;
23346;SDS011;36852;45.466;11.066;2023-06-05T09:47:08;2.87;;;1.75;;
23346;SDS011;36852;45.466;11.066;2023-06-05T09:52:13;3.62;;;3.25;;
23346;SDS011;36852;45.466;11.066;2023-06-05T09:54:45;4.97;;;2.47;;
23346;SDS011;36852;45.466;11.066;2023-06-05T09:57:14;4.17;;;2.50;;
23346;SDS011;36852;45.466;11.066;2023-06-05T09:59:53;2.72;;;2.30;;
23346;SDS011;36852;45.466;11.066;2023-06-05T10:02:27;3.40;;;2.50;;
23346;SDS011;36852;45.466;11.066;2023-06-05T10:04:57;3.05;;;2.50;;
23346;SDS011;36852;45.466;11.066;2023-06-05T10:07:31;5.62;;;2.70;;
23346;SDS011;36852;45.466;11.066;2023-06-05T10:10:06;4.58;;;2.70;;
23346;SDS011;36852;45.466;11.066;2023-06-05T10:12:36;4.33;;;2.95;;
23346;SDS011;36852;45.466;11.066;2023-06-05T10:15:05;4.87;;;2.40;;
23346;SDS011;36852;45.466;11.066;2023-06-05T10:17:37;2.65;;;2.12;;
23346;SDS011;36852;45.466;11.066;2023-06-05T10:20:07;3.27;;;2.33;;
23346;SDS011;36852;45.466;11.066;2023-06-05T10:22:36;2.85;;;2.10;;
23346;SDS011;36852;45.466;11.066;2023-06-05T10:25:10;2.83;;;2.42;;
23346;SDS011;36852;45.466;11.066;2023-06-05T10:30:25;4.55;;;2.55;;
23346;SDS011;36852;45.466;11.066;2023-06-05T10:33:02;4.50;;;2.67;;
23346;SDS011;36852;45.466;11.066;2023-06-05T10:38:17;4.00;;;2.80;;
23346;SDS011;36852;45.466;11.066;2023-06-05T10:40:54;4.00;;;2.67;;
23346;SDS011;36852;45.466;11.066;2023-06-05T10:43:23;3.55;;;2.60;;
23346;SDS011;36852;45.466;11.066;2023-06-05T10:45:55;5.25;;;2.90;;
23346;SDS011;36852;45.466;11.066;2023-06-05T10:56:54;3.37;;;3.08;;
23346;SDS011;36852;45.466;11.066;2023-06-05T10:59:32;4.53;;;2.37;;
23346;SDS011;36852;45.466;11.066;2023-06-05T11:07:19;5.42;;;3.22;;
23346;SDS011;36852;45.466;11.066;2023-06-05T11:15:12;5.35;;;2.80;;
23346;SDS011;36852;45.466;11.066;2023-06-05T11:17:42;3.22;;;2.80;;
23346;SDS011;36852;45.466;11.066;2023-06-05T11:25:29;5.15;;;3.10;;
23346;SDS011;36852;45.466;11.066;2023-06-05T11:28:02;4.85;;;3.70;;
23346;SDS011;36852;45.466;11.066;2023-06-05T11:30:38;5.78;;;3.22;;
23346;SDS011;36852;45.466;11.066;2023-06-05T11:40:47;4.53;;;3.20;;
23346;SDS011;36852;45.466;11.066;2023-06-05T11:43:16;3.40;;;2.90;;
23346;SDS011;36852;45.466;11.066;2023-06-05T11:45:55;5.95;;;3.58;;
23346;SDS011;36852;45.466;11.066;2023-06-05T11:48:25;3.85;;;3.08;;
23346;SDS011;36852;45.466;11.066;2023-06-05T11:53:35;4.47;;;3.30;;
23346;SDS011;36852;45.466;11.066;2023-06-05T11:56:11;3.33;;;2.83;;
23346;SDS011;36852;45.466;11.066;2023-06-05T11:58:43;3.65;;;3.08;;
23346;SDS011;36852;45.466;11.066;2023-06-05T12:01:18;2.95;;;2.60;;
23346;SDS011;36852;45.466;11.066;2023-06-05T12:04:01;7.53;;;3.67;;
23346;SDS011;36852;45.466;11.066;2023-06-05T12:06:31;3.40;;;3.05;;
23346;SDS011;36852;45.466;11.066;2023-06-05T12:09:11;5.92;;;3.08;;
23346;SDS011;36852;45.466;11.066;2023-06-05T12:11:44;4.25;;;3.10;;
23346;SDS011;36852;45.466;11.066;2023-06-05T12:14:12;3.72;;;3.35;;
23346;SDS011;36852;45.466;11.066;2023-06-05T12:16:41;3.62;;;3.25;;
23346;SDS011;36852;45.466;11.066;2023-06-05T12:19:19;4.42;;;3.62;;
23346;SDS011;36852;45.466;11.066;2023-06-05T12:21:47;5.87;;;3.33;;
23346;SDS011;36852;45.466;11.066;2023-06-05T12:24:27;4.62;;;3.67;;
23346;SDS011;36852;45.466;11.066;2023-06-05T12:26:56;5.50;;;3.62;;
23346;SDS011;36852;45.466;11.066;2023-06-05T12:31:58;4.37;;;3.90;;
23346;SDS011;36852;45.466;11.066;2023-06-05T12:37:21;7.05;;;4.05;;
23346;SDS011;36852;45.466;11.066;2023-06-05T12:39:57;6.10;;;3.50;;
23346;SDS011;36852;45.466;11.066;2023-06-05T12:42:26;4.47;;;3.33;;
23346;SDS011;36852;45.466;11.066;2023-06-05T12:44:55;4.00;;;3.17;;
23346;SDS011;36852;45.466;11.066;2023-06-05T12:47:23;3.62;;;3.20;;
23346;SDS011;36852;45.466;11.066;2023-06-05T12:49:51;5.22;;;3.60;;
23346;SDS011;36852;45.466;11.066;2023-06-05T12:52:19;4.95;;;3.40;;
23346;SDS011;36852;45.466;11.066;2023-06-05T12:54:55;4.85;;;3.60;;
23346;SDS011;36852;45.466;11.066;2023-06-05T12:57:24;4.67;;;3.12;;
23346;SDS011;36852;45.466;11.066;2023-06-05T12:59:53;6.33;;;3.50;;
23346;SDS011;36852;45.466;11.066;2023-06-05T13:02:23;5.67;;;3.83;;
23346;SDS011;36852;45.466;11.066;2023-06-05T13:04:51;4.45;;;3.52;;
23346;SDS011;36852;45.466;11.066;2023-06-05T13:07:19;4.20;;;2.83;;
23346;SDS011;36852;45.466;11.066;2023-06-05T13:09:48;4.87;;;3.30;;
23346;SDS011;36852;45.466;11.066;2023-06-05T13:12:19;5.85;;;3.67;;
23346;SDS011;36852;45.466;11.066;2023-06-05T13:14:48;3.70;;;3.20;;
23346;SDS011;36852;45.466;11.066;2023-06-05T13:17:16;3.72;;;3.10;;
23346;SDS011;36852;45.466;11.066;2023-06-05T13:19:44;3.98;;;3.02;;
23346;SDS011;36852;45.466;11.066;2023-06-05T13:22:12;5.92;;;3.35;;
23346;SDS011;36852;45.466;11.066;2023-06-05T13:24:40;3.77;;;3.02;;
23346;SDS011;36852;45.466;11.066;2023-06-05T13:27:08;10.38;;;5.30;;
23346;SDS011;36852;45.466;11.066;2023-06-05T13:29:38;3.87;;;3.47;;
23346;SDS011;36852;45.466;11.066;2023-06-05T13:32:07;5.22;;;3.30;;
23346;SDS011;36852;45.466;11.066;2023-06-05T13:34:35;4.55;;;3.17;;
23346;SDS011;36852;45.466;11.066;2023-06-05T13:37:04;4.33;;;3.00;;
23346;SDS011;36852;45.466;11.066;2023-06-05T13:39:33;4.83;;;3.22;;
23346;SDS011;36852;45.466;11.066;2023-06-05T13:42:02;4.33;;;2.72;;
23346;SDS011;36852;45.466;11.066;2023-06-05T13:44:33;4.10;;;2.95;;
23346;SDS011;36852;45.466;11.066;2023-06-05T13:47:01;5.47;;;3.12;;
23346;SDS011;36852;45.466;11.066;2023-06-05T13:49:30;2.90;;;2.70;;
23346;SDS011;36852;45.466;11.066;2023-06-05T13:51:58;4.25;;;2.60;;
23346;SDS011;36852;45.466;11.066;2023-06-05T13:54:25;4.10;;;3.15;;
23346;SDS011;36852;45.466;11.066;2023-06-05T13:56:54;3.00;;;2.80;;
23346;SDS011;36852;45.466;11.066;2023-06-05T13:59:21;6.90;;;3.05;;
23346;SDS011;36852;45.466;11.066;2023-06-05T14:01:49;3.65;;;3.08;;
23346;SDS011;36852;45.466;11.066;2023-06-05T14:04:16;3.37;;;3.08;;
23346;SDS011;36852;45.466;11.066;2023-06-05T14:06:44;3.40;;;3.10;;
23346;SDS011;36852;45.466;11.066;2023-06-05T14:09:11;3.80;;;3.35;;
23346;SDS011;36852;45.466;11.066;2023-06-05T14:11:40;5.00;;;2.90;;
23346;SDS011;36852;45.466;11.066;2023-06-05T14:14:10;3.50;;;3.20;;
23346;SDS011;36852;45.466;11.066;2023-06-05T14:16:38;3.65;;;3.00;;
23346;SDS011;36852;45.466;11.066;2023-06-05T14:19:07;3.12;;;2.83;;
23346;SDS011;36852;45.466;11.066;2023-06-05T14:21:34;3.42;;;2.70;;
23346;SDS011;36852;45.466;11.066;2023-06-05T14:24:03;4.95;;;2.98;;
23346;SDS011;36852;45.466;11.066;2023-06-05T14:26:31;4.70;;;3.52;;
23346;SDS011;36852;45.466;11.066;2023-06-05T14:28:59;3.80;;;3.05;;
23346;SDS011;36852;45.466;11.066;2023-06-05T14:31:26;6.65;;;3.50;;
23346;SDS011;36852;45.466;11.066;2023-06-05T14:33:55;6.00;;;3.40;;
23346;SDS011;36852;45.466;11.066;2023-06-05T14:36:23;4.55;;;3.25;;
23346;SDS011;36852;45.466;11.066;2023-06-05T14:38:52;4.20;;;3.55;;
23346;SDS011;36852;45.466;11.066;2023-06-05T14:41:22;3.60;;;3.08;;
23346;SDS011;36852;45.466;11.066;2023-06-05T14:43:51;3.90;;;3.35;;
23346;SDS011;36852;45.466;11.066;2023-06-05T14:46:19;4.17;;;2.80;;
23346;SDS011;36852;45.466;11.066;2023-06-05T14:48:47;7.95;;;6.00;;
23346;SDS011;36852;45.466;11.066;2023-06-05T14:51:15;4.10;;;3.70;;
23346;SDS011;36852;45.466;11.066;2023-06-05T14:53:45;3.55;;;3.25;;
23346;SDS011;36852;45.466;11.066;2023-06-05T14:56:13;3.17;;;2.85;;
23346;SDS011;36852;45.466;11.066;2023-06-05T14:58:41;3.20;;;2.90;;
23346;SDS011;36852;45.466;11.066;2023-06-05T15:01:09;4.28;;;3.00;;
23346;SDS011;36852;45.466;11.066;2023-06-05T15:03:37;3.40;;;3.10;;
23346;SDS011;36852;45.466;11.066;2023-06-05T15:06:05;3.92;;;2.98;;
23346;SDS011;36852;45.466;11.066;2023-06-05T15:08:35;3.27;;;2.98;;
23346;SDS011;36852;45.466;11.066;2023-06-05T15:11:04;3.83;;;3.42;;
23346;SDS011;36852;45.466;11.066;2023-06-05T15:13:32;3.87;;;3.42;;
23346;SDS011;36852;45.466;11.066;2023-06-05T15:16:01;4.22;;;3.25;;
23346;SDS011;36852;45.466;11.066;2023-06-05T15:18:29;3.47;;;3.15;;
23346;SDS011;36852;45.466;11.066;2023-06-05T15:20:56;3.80;;;3.17;;
23346;SDS011;36852;45.466;11.066;2023-06-05T15:23:24;4.83;;;3.10;;
23346;SDS011;36852;45.466;11.066;2023-06-05T15:25:52;7.15;;;3.60;;
23346;SDS011;36852;45.466;11.066;2023-06-05T15:28:22;3.37;;;3.08;;
23346;SDS011;36852;45.466;11.066;2023-06-05T15:30:51;3.75;;;3.10;;
23346;SDS011;36852;45.466;11.066;2023-06-05T15:33:19;7.50;;;2.98;;
23346;SDS011;36852;45.466;11.066;2023-06-05T15:35:47;3.35;;;3.05;;
23346;SDS011;36852;45.466;11.066;2023-06-05T15:38:17;3.33;;;2.83;;
23346;SDS011;36852;45.466;11.066;2023-06-05T15:40:45;3.42;;;3.05;;
23346;SDS011;36852;45.466;11.066;2023-06-05T15:43:12;4.17;;;2.95;;
23346;SDS011;36852;45.466;11.066;2023-06-05T15:45:40;4.12;;;3.58;;
23346;SDS011;36852;45.466;11.066;2023-06-05T15:48:08;4.25;;;3.40;;
23346;SDS011;36852;45.466;11.066;2023-06-05T15:50:36;4.17;;;3.27;;
23346;SDS011;36852;45.466;11.066;2023-06-05T15:53:05;4.62;;;3.67;;